Time;durP1;ratioP1;P1;durP2;ratioP2;P2;SDS_P1;SDS_P2;PMS_P1;PMS_P2;Temp;Humidity;BMP_temperature;BMP_pressure;BME280_temperature;BME280_humidity;BME280_pressure;Samples;Min_cycle;Max_cycle;Signal;HPM_P1;HPM_P2
2022/04/16 00:00:50;;;;;;;32.92;22.83;;;7.90;99.90;;;;;;5060586;28;20056;-82
2022/04/16 00:03:16;;;;;;;34.08;23.83;;;7.80;99.90;;;;;;5073538;28;20041;-82
2022/04/16 00:05:42;;;;;;;37.15;24.58;;;7.70;99.90;;;;;;5056109;28;20053;-83
2022/04/16 00:08:08;;;;;;;36.15;24.98;;;7.60;99.90;;;;;;5055845;28;20071;-83
2022/04/16 00:10:34;;;;;;;36.08;24.15;;;7.50;99.90;;;;;;5073295;28;20045;-82
2022/04/16 00:13:00;;;;;;;34.17;23.08;;;7.50;99.90;;;;;;5039955;28;20052;-83
2022/04/16 00:15:26;;;;;;;36.15;25.02;;;7.50;99.90;;;;;;5073868;28;20037;-82
2022/04/16 00:17:53;;;;;;;33.10;24.35;;;7.40;99.90;;;;;;5071845;28;20404;-83
2022/04/16 00:20:18;;;;;;;34.92;23.58;;;7.30;99.90;;;;;;5089313;28;20294;-82
2022/04/16 00:22:44;;;;;;;32.65;22.55;;;7.30;99.90;;;;;;5071726;28;20342;-83
2022/04/16 00:25:11;;;;;;;38.88;24.55;;;7.30;99.90;;;;;;5073220;28;20092;-83
2022/04/16 00:27:39;;;;;;;38.88;24.65;;;7.30;99.90;;;;;;5038506;28;20143;-83
2022/04/16 00:30:05;;;;;;;40.60;24.98;;;7.30;99.90;;;;;;5072950;28;20554;-83
2022/04/16 00:32:31;;;;;;;41.33;26.05;;;7.30;99.90;;;;;;5088505;28;20048;-83
2022/04/16 00:34:57;;;;;;;39.97;25.48;;;7.30;99.90;;;;;;5071588;28;20037;-82
2022/04/16 00:37:23;;;;;;;41.50;25.25;;;7.20;99.90;;;;;;5072379;28;20185;-82
2022/04/16 00:39:48;;;;;;;40.65;24.88;;;7.10;99.90;;;;;;5072303;28;20044;-82
2022/04/16 00:42:14;;;;;;;39.40;24.33;;;7.80;99.90;;;;;;5055024;28;20079;-82
2022/04/16 00:44:40;;;;;;;37.90;25.92;;;6.90;99.90;;;;;;5070891;28;20099;-83
2022/04/16 00:47:06;;;;;;;42.22;26.60;;;6.90;99.90;;;;;;5072643;28;20055;-83
2022/04/16 00:49:31;;;;;;;44.10;27.15;;;6.80;99.90;;;;;;5072146;28;20088;-82
2022/04/16 00:51:57;;;;;;;40.22;23.75;;;6.70;99.90;;;;;;5070913;28;20076;-82
2022/04/16 00:54:23;;;;;;;44.75;26.52;;;6.80;99.90;;;;;;5054847;28;20423;-82
2022/04/16 00:56:49;;;;;;;40.85;25.92;;;6.70;99.90;;;;;;5070216;28;20078;-82
2022/04/16 00:59:15;;;;;;;46.15;27.42;;;6.70;99.90;;;;;;5072162;28;20045;-81
2022/04/16 01:01:40;;;;;;;43.72;26.85;;;6.80;99.90;;;;;;5053243;28;20124;-82
2022/04/16 01:04:06;;;;;;;48.38;27.95;;;6.70;99.90;;;;;;5072232;28;20040;-82
2022/04/16 01:06:36;;;;;;;46.67;27.40;;;6.80;99.90;;;;;;5071092;28;20102;-82
2022/04/16 01:09:02;;;;;;;44.38;27.20;;;6.70;99.90;;;;;;5054238;28;20053;-83
2022/04/16 01:11:28;;;;;;;46.25;29.42;;;6.60;99.90;;;;;;5071136;28;20051;-83
2022/04/16 01:13:53;;;;;;;51.38;31.30;;;6.60;99.90;;;;;;5070358;28;20048;-82
2022/04/16 01:16:19;;;;;;;45.55;28.17;;;6.40;99.90;;;;;;5070176;28;20442;-83
2022/04/16 01:18:46;;;;;;;47.88;29.70;;;6.70;99.90;;;;;;5071367;28;20066;-82
2022/04/16 01:21:13;;;;;;;52.80;29.77;;;6.40;99.90;;;;;;5054568;28;20063;-83
2022/04/16 01:23:39;;;;;;;53.88;30.00;;;6.30;99.90;;;;;;5071702;28;20484;-83
2022/04/16 01:26:05;;;;;;;51.45;27.90;;;6.30;99.90;;;;;;5053904;28;20169;-83
2022/04/16 01:28:31;;;;;;;51.20;29.67;;;7.10;99.90;;;;;;5071235;28;20135;-83
2022/04/16 01:30:56;;;;;;;54.97;29.60;;;6.20;99.90;;;;;;5070270;28;20056;-82
2022/04/16 01:33:22;;;;;;;52.95;31.95;;;7.20;99.90;;;;;;5071491;28;20063;-83
2022/04/16 01:35:51;;;;;;;55.17;31.27;;;6.20;99.90;;;;;;5071061;28;20049;-83
2022/04/16 01:38:17;;;;;;;56.97;31.98;;;6.20;99.90;;;;;;5071523;28;20048;-83
2022/04/16 01:40:42;;;;;;;57.92;30.52;;;6.10;99.90;;;;;;5053592;28;20484;-83
2022/04/16 01:43:08;;;;;;;54.97;30.88;;;6.00;99.90;;;;;;5071656;28;20052;-83
2022/04/16 01:45:34;;;;;;;56.15;31.83;;;6.20;99.90;;;;;;5078888;28;20059;-82
2022/04/16 01:48:00;;;;;;;53.50;31.70;;;6.10;99.90;;;;;;5059124;28;20489;-81
2022/04/16 01:50:26;;;;;;;57.70;31.60;;;6.00;99.90;;;;;;5070274;28;20052;-81
2022/04/16 01:52:52;;;;;;;58.70;32.88;;;6.10;99.90;;;;;;5057772;28;20044;-82
2022/04/16 01:55:18;;;;;;;56.05;32.65;;;6.10;99.90;;;;;;5072764;28;20054;-83
2022/04/16 01:57:43;;;;;;;54.05;31.27;;;6.10;99.90;;;;;;5069380;28;20485;-83
2022/04/16 02:00:11;;;;;;;61.03;33.13;;;6.60;99.90;;;;;;5071746;28;20052;-83
2022/04/16 02:02:37;;;;;;;57.92;32.58;;;6.10;99.90;;;;;;5052446;28;20101;-82
2022/04/16 02:05:05;;;;;;;60.47;34.17;;;6.50;99.90;;;;;;5069214;28;20070;-82
2022/04/16 02:07:31;;;;;;;58.60;34.08;;;6.20;99.90;;;;;;5069725;28;20048;-83
2022/04/16 02:09:56;;;;;;;61.15;33.88;;;6.20;99.90;;;;;;5053009;28;20496;-82
2022/04/16 02:12:22;;;;;;;61.45;34.78;;;6.30;99.90;;;;;;5053715;28;20071;-82
2022/04/16 02:14:48;;;;;;;63.75;33.50;;;6.40;99.90;;;;;;5077700;28;20056;-82
2022/04/16 02:17:14;;;;;;;57.25;32.30;;;6.20;99.90;;;;;;5083021;28;20083;-81
2022/04/16 02:19:41;;;;;;;61.78;33.08;;;6.30;99.90;;;;;;5081195;28;20044;-83
2022/04/16 02:22:07;;;;;;;61.42;33.05;;;7.40;99.90;;;;;;5070424;28;20165;-83
2022/04/16 02:24:32;;;;;;;59.70;32.72;;;6.40;99.90;;;;;;5053871;28;20491;-83
2022/04/16 02:26:58;;;;;;;59.38;34.28;;;6.50;99.90;;;;;;5070052;28;20465;-82
2022/04/16 02:29:24;;;;;;;56.03;34.25;;;6.50;99.90;;;;;;5071683;28;20106;-83
2022/04/16 02:31:49;;;;;;;58.45;34.65;;;7.30;99.90;;;;;;5071567;28;20067;-83
2022/04/16 02:34:16;;;;;;;64.00;34.30;;;6.70;99.90;;;;;;5082844;28;20048;-81
2022/04/16 02:36:43;;;;;;;64.20;34.53;;;6.80;99.90;;;;;;5087694;28;20056;-81
2022/04/16 02:39:09;;;;;;;63.53;37.35;;;6.90;99.90;;;;;;5068081;28;20052;-83
2022/04/16 02:41:35;;;;;;;62.65;35.58;;;6.90;99.90;;;;;;5082704;28;20070;-83
2022/04/16 02:44:00;;;;;;;61.25;35.85;;;7.00;99.90;;;;;;5056287;28;20036;-83
2022/04/16 02:49:12;;;;;;;;;;;7.20;99.90;;;;;;5072269;28;20049;-83
2022/04/16 02:51:38;;;;;;;57.63;33.60;;;7.40;99.90;;;;;;5072821;28;20383;-83
2022/04/16 02:54:05;;;;;;;55.67;35.20;;;7.50;99.90;;;;;;5071045;28;20047;-83
2022/04/16 02:56:31;;;;;;;56.55;34.25;;;7.50;99.90;;;;;;5070699;28;20090;-84
2022/04/16 02:58:57;;;;;;;53.95;34.45;;;7.90;99.90;;;;;;5053526;28;20111;-83
2022/04/16 03:01:23;;;;;;;55.90;35.15;;;7.90;99.90;;;;;;5071715;28;20506;-83
2022/04/16 03:03:49;;;;;;;52.35;34.35;;;7.80;99.90;;;;;;5070012;28;20044;-81
2022/04/16 03:06:14;;;;;;;52.78;34.10;;;7.90;99.90;;;;;;5071168;28;20389;-83
2022/04/16 03:08:40;;;;;;;54.78;34.05;;;7.90;99.90;;;;;;5070092;28;20040;-82
2022/04/16 03:11:06;;;;;;;49.60;33.33;;;7.90;99.90;;;;;;5069549;28;20067;-84
2022/04/16 03:13:34;;;;;;;53.35;34.13;;;7.90;99.90;;;;;;5072808;28;20137;-84
2022/04/16 03:18:47;;;;;;;51.60;34.03;;;8.00;99.90;;;;;;5075187;28;20408;-83
2022/04/16 03:21:13;;;;;;;52.38;34.00;;;8.00;99.90;;;;;;5040054;28;20063;-83
2022/04/16 03:23:39;;;;;;;55.25;36.00;;;8.00;99.90;;;;;;5072553;28;20056;-82
2022/04/16 03:26:05;;;;;;;55.97;36.03;;;8.10;99.90;;;;;;5073707;28;20053;-82
2022/04/16 03:28:32;;;;;;;55.30;36.03;;;8.10;99.90;;;;;;5073447;28;20044;-82
2022/04/16 03:30:58;;;;;;;55.90;36.33;;;8.10;99.90;;;;;;5073572;28;20123;-82
2022/04/16 03:33:24;;;;;;;58.25;37.33;;;8.60;99.90;;;;;;5074270;28;20224;-83
2022/04/16 03:35:51;;;;;;;57.00;37.47;;;8.10;99.90;;;;;;5073223;28;20523;-82
2022/04/16 03:38:20;;;;;;;55.30;37.80;;;8.10;99.90;;;;;;5073616;28;20052;-82
2022/04/16 03:40:48;;;;;;;60.90;40.28;;;8.10;99.90;;;;;;5073724;28;20056;-83
2022/04/16 03:43:13;;;;;;;59.40;37.85;;;8.10;99.90;;;;;;5072547;28;20691;-82
2022/04/16 03:45:39;;;;;;;60.80;40.67;;;8.20;99.90;;;;;;5072295;28;20060;-82
2022/04/16 03:48:05;;;;;;;65.28;42.33;;;8.20;99.90;;;;;;5056045;28;20078;-82
2022/04/16 03:50:31;;;;;;;63.63;41.75;;;8.20;99.90;;;;;;5089357;28;20045;-83
2022/04/16 03:52:57;;;;;;;60.30;40.35;;;8.20;99.90;;;;;;5072138;28;20109;-82
2022/04/16 04:00:53;;;;;;;59.47;39.47;;;8.20;99.90;;;;;;5072925;28;20052;-83
2022/04/16 04:03:20;;;;;;;50.95;34.50;;;8.20;99.90;;;;;;5055040;28;20044;-82
2022/04/16 04:05:46;;;;;;;54.85;36.70;;;8.20;99.90;;;;;;5055082;28;20075;-83
2022/04/16 04:08:12;;;;;;;54.40;38.00;;;8.30;99.90;;;;;;5055450;28;20049;-83
2022/04/16 04:10:38;;;;;;;50.25;35.80;;;8.20;99.90;;;;;;5039000;28;20051;-82
2022/04/16 04:13:03;;;;;;;50.95;36.03;;;8.50;99.90;;;;;;5072721;28;20049;-83
2022/04/16 04:15:29;;;;;;;51.13;34.17;;;8.20;99.90;;;;;;5072334;28;20068;-83
2022/04/16 04:17:59;;;;;;;44.78;29.98;;;8.20;99.90;;;;;;5073783;28;20469;-83
2022/04/16 04:20:25;;;;;;;42.20;27.90;;;8.20;99.90;;;;;;5072594;28;20048;-83
2022/04/16 04:22:50;;;;;;;36.72;27.33;;;8.20;99.90;;;;;;5023324;28;20048;-83
2022/04/16 04:25:16;;;;;;;42.45;28.85;;;8.00;99.90;;;;;;5054298;28;20075;-83
2022/04/16 04:27:42;;;;;;;39.50;27.80;;;8.00;99.90;;;;;;5072840;28;20061;-82
2022/04/16 04:30:08;;;;;;;31.58;23.42;;;8.00;99.90;;;;;;5072210;28;20082;-83
2022/04/16 04:32:35;;;;;;;33.63;23.23;;;8.00;99.90;;;;;;5073684;28;20496;-83
2022/04/16 04:35:02;;;;;;;32.60;23.23;;;8.00;99.90;;;;;;5085308;28;20418;-81
2022/04/16 04:37:27;;;;;;;34.58;22.35;;;7.00;99.90;;;;;;5088994;28;20058;-83
2022/04/16 04:39:53;;;;;;;31.20;20.50;;;7.90;99.90;;;;;;5081275;28;20080;-82
2022/04/16 04:42:29;;;;;;;32.40;21.42;;;7.90;99.90;;;;;;5072866;28;20499;-84
2022/04/16 04:44:55;;;;;;;33.92;22.40;;;7.80;99.90;;;;;;5074612;28;20400;-82
2022/04/16 04:47:20;;;;;;;31.27;21.02;;;8.00;99.90;;;;;;5090659;28;20592;-84
2022/04/16 04:49:46;;;;;;;30.23;20.65;;;7.90;99.90;;;;;;5060370;28;20056;-83
2022/04/16 04:52:26;;;;;;;33.30;21.48;;;7.90;99.90;;;;;;5073860;28;20474;-82
2022/04/16 04:54:55;;;;;;;31.27;20.27;;;7.80;99.90;;;;;;5086578;28;20371;-83
2022/04/16 04:57:21;;;;;;;29.95;20.67;;;7.80;99.90;;;;;;5057063;28;20369;-82
2022/04/16 04:59:46;;;;;;;30.27;21.85;;;7.90;99.90;;;;;;5055909;28;20143;-83
2022/04/16 05:02:12;;;;;;;28.45;19.85;;;7.80;99.90;;;;;;5072326;28;20067;-83
2022/04/16 05:04:38;;;;;;;28.83;19.85;;;7.90;99.90;;;;;;5055307;28;20104;-83
2022/04/16 05:07:05;;;;;;;26.30;18.23;;;7.90;99.90;;;;;;5071425;28;20052;-81
2022/04/16 05:09:31;;;;;;;30.15;20.10;;;7.90;99.90;;;;;;5055031;28;20041;-84
2022/04/16 05:11:57;;;;;;;28.42;19.38;;;7.90;99.90;;;;;;5054073;28;20049;-83
2022/04/16 05:14:22;;;;;;;26.35;17.60;;;7.90;99.90;;;;;;5071047;28;20055;-82
2022/04/16 05:16:48;;;;;;;26.88;17.85;;;7.90;99.90;;;;;;5071246;28;20064;-83
2022/04/16 05:19:14;;;;;;;27.67;18.40;;;7.90;99.90;;;;;;5054430;28;20480;-83
2022/04/16 05:21:40;;;;;;;25.70;18.33;;;7.90;99.90;;;;;;5088108;28;20052;-82
2022/04/16 05:24:09;;;;;;;26.50;18.10;;;7.90;99.90;;;;;;5070070;28;20044;-81
2022/04/16 05:26:35;;;;;;;24.98;17.58;;;8.00;99.90;;;;;;5070256;28;20066;-83
2022/04/16 05:29:00;;;;;;;24.33;16.92;;;8.00;99.90;;;;;;5072202;28;20485;-83
2022/04/16 05:31:27;;;;;;;25.05;17.52;;;7.90;99.90;;;;;;5071269;28;20075;-84
2022/04/16 05:36:38;;;;;;;24.52;16.40;;;8.10;99.90;;;;;;5056917;28;20062;-82
2022/04/16 05:39:04;;;;;;;22.77;16.00;;;8.10;99.90;;;;;;5036916;28;20044;-83
2022/04/16 05:41:29;;;;;;;20.48;15.88;;;8.10;99.90;;;;;;5053751;28;20056;-82
2022/04/16 05:43:55;;;;;;;20.10;11.43;;;8.10;99.90;;;;;;5072854;28;20045;-83
2022/04/16 05:46:21;;;;;;;21.60;14.40;;;9.10;99.90;;;;;;5070569;28;20103;-83
2022/04/16 05:48:47;;;;;;;22.83;15.93;;;8.20;99.90;;;;;;5072489;28;20052;-83
2022/04/16 05:51:13;;;;;;;23.73;15.30;;;8.20;99.90;;;;;;5057333;28;20163;-83
2022/04/16 05:53:38;;;;;;;21.60;14.27;;;8.40;99.90;;;;;;5068793;28;20055;-83
2022/04/16 05:56:04;;;;;;;20.63;13.00;;;8.40;99.90;;;;;;5078377;28;20127;-83
2022/04/16 05:58:30;;;;;;;25.60;15.13;;;8.30;99.90;;;;;;5076155;28;20071;-83
2022/04/16 06:00:55;;;;;;;24.83;14.82;;;8.20;99.90;;;;;;5077731;28;20098;-84
2022/04/16 06:03:21;;;;;;;22.95;14.80;;;8.30;99.90;;;;;;5072745;28;20055;-82
2022/04/16 06:05:47;;;;;;;20.38;13.05;;;8.40;99.90;;;;;;5055245;28;20044;-82
2022/04/16 06:08:13;;;;;;;20.45;13.30;;;9.20;99.90;;;;;;5071233;28;20056;-83
2022/04/16 06:10:38;;;;;;;18.77;13.20;;;10.00;99.90;;;;;;5072189;28;20474;-83
2022/04/16 06:13:04;;;;;;;19.95;13.77;;;10.20;99.90;;;;;;5072247;28;20040;-83
2022/04/16 06:15:30;;;;;;;16.98;11.10;;;10.90;99.90;;;;;;5071592;28;20045;-83
2022/04/16 06:17:58;;;;;;;16.98;12.52;;;11.10;99.90;;;;;;5054610;28;20056;-83
2022/04/16 06:20:24;;;;;;;19.85;12.30;;;11.30;99.90;;;;;;5070845;28;20492;-83
2022/04/16 06:22:49;;;;;;;17.55;11.93;;;11.70;99.90;;;;;;5070961;28;20114;-83
2022/04/16 06:25:15;;;;;;;19.42;13.38;;;12.30;99.90;;;;;;5070239;28;20115;-83
2022/04/16 06:27:41;;;;;;;16.30;11.05;;;12.50;99.90;;;;;;5070869;28;20041;-83
2022/04/16 06:30:08;;;;;;;17.13;11.60;;;12.50;99.90;;;;;;5072230;28;20055;-83
2022/04/16 06:32:34;;;;;;;15.60;11.35;;;12.60;99.90;;;;;;5070350;28;20059;-83
2022/04/16 06:35:01;;;;;;;15.23;11.18;;;12.80;99.90;;;;;;5037861;28;20048;-82
2022/04/16 06:37:27;;;;;;;14.68;11.52;;;13.10;99.90;;;;;;5053397;28;20129;-83
2022/04/16 06:39:53;;;;;;;16.80;11.20;;;12.80;99.90;;;;;;5070580;28;20124;-83
2022/04/16 06:42:18;;;;;;;14.75;11.07;;;13.20;99.90;;;;;;5070019;28;20467;-82
2022/04/16 06:44:44;;;;;;;14.90;10.90;;;13.10;99.90;;;;;;5071476;28;20086;-82
2022/04/16 06:47:10;;;;;;;15.05;11.48;;;12.80;99.90;;;;;;5054692;28;20114;-82
2022/04/16 06:49:36;;;;;;;16.13;10.75;;;12.90;99.90;;;;;;5070775;28;20087;-82
2022/04/16 06:52:01;;;;;;;14.68;10.32;;;12.90;99.90;;;;;;5071828;28;20476;-82
2022/04/16 06:54:27;;;;;;;12.30;9.40;;;13.30;99.90;;;;;;5085653;28;20079;-82
2022/04/16 06:56:53;;;;;;;14.73;8.60;;;13.90;99.90;;;;;;5091019;28;20048;-82
2022/04/16 06:59:18;;;;;;;10.77;7.70;;;13.40;99.90;;;;;;5078614;28;20404;-81
2022/04/16 07:01:44;;;;;;;10.45;6.97;;;13.80;99.90;;;;;;5072303;28;20508;-82
2022/04/16 07:04:11;;;;;;;8.23;6.13;;;13.40;99.90;;;;;;5070401;28;20051;-82
2022/04/16 07:06:39;;;;;;;8.80;6.53;;;13.50;99.90;;;;;;5069936;28;20404;-82
2022/04/16 07:09:04;;;;;;;8.15;6.63;;;13.90;99.90;;;;;;5071387;28;20110;-82
2022/04/16 07:11:30;;;;;;;8.85;6.55;;;13.60;99.90;;;;;;5083820;28;20496;-81
2022/04/16 07:13:57;;;;;;;8.45;5.95;;;13.90;99.90;;;;;;5053359;28;20037;-80
2022/04/16 07:16:23;;;;;;;8.85;6.35;;;13.90;99.90;;;;;;5068730;28;20076;-80
2022/04/16 07:18:48;;;;;;;9.18;6.30;;;14.50;99.90;;;;;;5052402;28;20087;-81
2022/04/16 07:21:15;;;;;;;10.75;6.68;;;14.10;99.90;;;;;;5070792;28;20045;-81
2022/04/16 07:23:41;;;;;;;11.07;6.90;;;14.40;99.90;;;;;;5067730;28;20124;-82
2022/04/16 07:26:07;;;;;;;11.25;6.47;;;14.60;99.90;;;;;;5052193;28;20112;-81
2022/04/16 07:28:32;;;;;;;10.43;6.07;;;14.20;99.90;;;;;;5069010;28;20048;-81
2022/04/16 07:30:58;;;;;;;8.05;5.88;;;14.60;99.90;;;;;;5069232;28;20049;-81
2022/04/16 07:33:27;;;;;;;8.88;6.03;;;14.40;99.90;;;;;;5069996;28;20052;-81
2022/04/16 07:35:53;;;;;;;10.98;6.18;;;14.60;99.90;;;;;;5036601;28;20178;-81
2022/04/16 07:38:19;;;;;;;7.82;6.38;;;15.10;99.90;;;;;;5070691;28;20083;-82
2022/04/16 07:40:44;;;;;;;10.05;6.72;;;15.30;99.90;;;;;;5069314;28;20493;-80
2022/04/16 07:43:10;;;;;;;8.10;6.60;;;15.70;99.90;;;;;;5070026;28;20477;-82
2022/04/16 07:45:36;;;;;;;12.23;8.52;;;15.40;99.90;;;;;;5069470;28;20059;-82
2022/04/16 07:48:01;;;;;;;9.15;6.07;;;15.20;99.90;;;;;;5072996;28;20045;-80
2022/04/16 07:50:27;;;;;;;11.23;7.53;;;15.50;99.90;;;;;;5069433;28;20063;-80
2022/04/16 07:52:53;;;;;;;10.05;7.85;;;15.90;99.90;;;;;;5070493;28;20072;-82
2022/04/16 07:55:18;;;;;;;10.57;8.15;;;16.30;99.90;;;;;;5070228;28;20036;-79
2022/04/16 07:57:44;;;;;;;12.35;7.75;;;15.10;99.90;;;;;;5072811;28;20047;-81
2022/04/16 08:00:10;;;;;;;9.95;6.55;;;15.80;99.90;;;;;;5051659;28;20049;-81
2022/04/16 08:02:36;;;;;;;14.18;7.68;;;15.50;99.90;;;;;;5041917;28;20044;-82
2022/04/16 08:05:01;;;;;;;11.30;7.78;;;15.40;99.90;;;;;;5054890;28;20040;-81
2022/04/16 08:07:27;;;;;;;9.77;7.00;;;16.20;99.90;;;;;;5071350;28;20101;-81
2022/04/16 08:09:53;;;;;;;11.15;7.45;;;15.60;99.90;;;;;;5071545;28;20052;-81
2022/04/16 08:12:18;;;;;;;9.15;6.85;;;15.50;99.90;;;;;;5055363;28;20040;-81
2022/04/16 08:14:44;;;;;;;9.00;6.28;;;16.10;99.90;;;;;;5071591;28;20066;-81
2022/04/16 08:17:10;;;;;;;13.50;7.25;;;15.40;99.90;;;;;;5071654;28;20056;-81
2022/04/16 08:19:35;;;;;;;9.73;6.97;;;15.10;99.90;;;;;;5052642;28;20184;-81
2022/04/16 08:22:06;;;;;;;9.63;6.43;;;15.40;99.90;;;;;;5073052;28;20051;-81
2022/04/16 08:24:41;;;;;;;8.23;6.25;;;15.30;99.90;;;;;;5071628;28;20484;-81
2022/04/16 08:27:07;;;;;;;8.13;6.20;;;15.50;99.90;;;;;;5060321;28;20385;-80
2022/04/16 08:29:33;;;;;;;10.50;6.05;;;15.50;99.90;;;;;;5070992;28;20141;-81
2022/04/16 08:31:59;;;;;;;8.90;6.53;;;15.80;99.90;;;;;;5072153;28;20500;-81
2022/04/16 08:34:24;;;;;;;7.85;5.50;;;15.70;99.90;;;;;;5055319;28;20040;-81
2022/04/16 08:36:51;;;;;;;7.57;5.80;;;15.80;99.90;;;;;;5071672;28;20080;-80
2022/04/16 08:39:16;;;;;;;8.02;5.13;;;16.10;98.70;;;;;;5071471;28;20134;-81
2022/04/16 08:41:42;;;;;;;6.95;5.45;;;16.30;97.20;;;;;;5071596;28;20048;-82
2022/04/16 08:44:08;;;;;;;4.80;3.65;;;16.60;97.80;;;;;;5072045;28;20457;-82
2022/04/16 08:46:33;;;;;;;6.25;4.10;;;16.80;92.10;;;;;;5072457;28;20508;-82
2022/04/16 08:48:59;;;;;;;4.47;3.42;;;16.10;91.90;;;;;;5071060;28;20051;-81
2022/04/16 08:51:28;;;;;;;5.97;3.67;;;16.40;93.20;;;;;;5072747;28;20365;-82
2022/04/16 08:53:54;;;;;;;4.20;3.40;;;16.30;92.50;;;;;;5054764;28;20127;-82
2022/04/16 08:56:19;;;;;;;4.60;3.63;;;16.10;92.70;;;;;;5071079;28;20361;-81
2022/04/16 08:58:45;;;;;;;5.63;4.13;;;16.00;93.90;;;;;;5067455;28;20099;-81
2022/04/16 09:01:11;;;;;;;5.22;3.60;;;16.20;91.50;;;;;;5071769;28;20044;-81
2022/04/16 09:03:39;;;;;;;5.07;3.90;;;16.40;93.20;;;;;;5072257;28;20109;-81
2022/04/16 09:06:05;;;;;;;4.80;3.22;;;16.60;92.70;;;;;;5070752;28;20052;-80
2022/04/16 09:08:31;;;;;;;5.22;3.50;;;16.60;92.40;;;;;;5038221;28;20041;-80
2022/04/16 09:11:11;;;;;;;5.97;3.78;;;16.70;91.90;;;;;;5053533;28;20044;-81
2022/04/16 09:13:55;;;;;;;5.55;3.60;;;17.00;91.60;;;;;;5075058;28;20154;-80
2022/04/16 09:16:21;;;;;;;;;;;16.90;92.90;;;;;;5053247;28;20041;-81
2022/04/16 09:18:51;;;;;;;3.95;2.60;;;16.90;90.30;;;;;;5079199;28;19921;-82
2022/04/16 09:21:23;;;;;;;4.10;2.80;;;17.20;87.40;;;;;;5057725;28;20051;-81
2022/04/16 09:23:52;;;;;;;4.40;2.70;;;17.40;88.20;;;;;;5074720;28;20044;-80
2022/04/16 09:26:32;;;;;;;3.47;2.60;;;17.00;87.00;;;;;;5088431;28;20110;-80
2022/04/16 09:29:08;;;;;;;4.47;2.60;;;17.10;84.40;;;;;;5080330;28;20048;-80
2022/04/16 09:31:35;;;;;;;4.03;2.33;;;16.30;85.90;;;;;;5069771;28;20059;-81
2022/04/16 09:34:01;;;;;;;3.85;2.22;;;16.20;88.00;;;;;;5061953;28;20045;-81
2022/04/16 09:36:27;;;;;;;2.88;2.20;;;16.20;86.40;;;;;;5072632;28;20051;-81
2022/04/16 09:39:00;;;;;;;2.83;1.50;;;16.50;83.50;;;;;;5071382;28;20053;-81
2022/04/16 09:41:38;;;;;;;2.33;1.90;;;16.80;80.90;;;;;;5055721;28;20091;-81
2022/04/16 09:44:04;;;;;;;2.88;1.80;;;16.60;80.40;;;;;;5055532;28;20075;-81
2022/04/16 09:46:31;;;;;;;5.45;1.70;;;16.70;79.80;;;;;;5087754;28;20074;-81
2022/04/16 09:49:03;;;;;;;2.63;1.92;;;16.80;80.20;;;;;;5070595;28;20265;-82
2022/04/16 09:51:34;;;;;;;2.90;1.65;;;16.50;77.50;;;;;;5054214;28;20049;-81
2022/04/16 09:54:04;;;;;;;1.83;1.70;;;16.70;79.30;;;;;;5043694;28;20493;-81
2022/04/16 09:56:31;;;;;;;2.10;1.73;;;16.90;77.60;;;;;;5038382;28;20481;-82
2022/04/16 09:58:58;;;;;;;2.03;1.65;;;16.80;76.90;;;;;;5053885;28;20145;-81
2022/04/16 10:01:24;;;;;;;1.88;1.38;;;16.80;76.70;;;;;;5070457;28;20060;-81
2022/04/16 10:03:50;;;;;;;1.70;1.48;;;17.20;78.60;;;;;;5053033;28;20062;-82
2022/04/16 10:06:16;;;;;;;2.08;1.65;;;16.60;78.90;;;;;;5053631;28;20036;-81
2022/04/16 10:08:41;;;;;;;2.53;1.80;;;16.70;75.80;;;;;;5053341;28;20384;-81
2022/04/16 10:11:08;;;;;;;1.70;1.23;;;17.00;77.60;;;;;;5053993;28;20441;-82
2022/04/16 10:13:40;;;;;;;1.48;1.38;;;17.00;75.10;;;;;;5071969;28;20052;-81
2022/04/16 10:16:25;;;;;;;2.35;1.42;;;17.60;75.20;;;;;;5070857;28;20041;-82
2022/04/16 10:18:51;;;;;;;2.85;1.50;;;18.00;76.00;;;;;;5054244;28;20048;-82
2022/04/16 10:21:16;;;;;;;1.50;0.98;;;17.70;71.70;;;;;;5070883;28;20502;-82
2022/04/16 10:23:42;;;;;;;2.08;1.05;;;18.20;71.40;;;;;;5052643;28;20048;-82
2022/04/16 10:26:13;;;;;;;3.13;1.30;;;17.80;73.50;;;;;;5071503;28;20072;-82
2022/04/16 10:28:39;;;;;;;1.85;1.20;;;17.50;76.20;;;;;;5071524;28;20412;-82
2022/04/16 10:31:06;;;;;;;3.13;1.13;;;17.40;72.30;;;;;;5052917;28;20052;-81
2022/04/16 10:33:32;;;;;;;2.28;1.33;;;16.90;71.00;;;;;;5070176;28;20362;-82
2022/04/16 10:36:02;;;;;;;1.35;0.90;;;17.00;74.20;;;;;;5036435;28;20040;-82
2022/04/16 10:38:34;;;;;;;1.35;0.70;;;17.00;70.60;;;;;;5071697;28;20052;-82
2022/04/16 10:41:20;;;;;;;1.73;1.00;;;16.70;68.10;;;;;;5070724;28;20497;-81
2022/04/16 10:44:01;;;;;;;1.10;1.00;;;17.00;71.20;;;;;;5068781;28;20056;-82
2022/04/16 10:46:46;;;;;;;1.10;1.00;;;16.30;69.10;;;;;;5069823;28;20033;-82
2022/04/16 10:49:22;;;;;;;0.90;0.90;;;16.20;67.70;;;;;;5069660;28;20056;-82
2022/04/16 10:51:50;;;;;;;2.45;1.13;;;16.50;69.60;;;;;;5071091;28;20045;-81
2022/04/16 10:54:34;;;;;;;2.28;1.10;;;15.80;69.10;;;;;;5052126;28;20441;-81
2022/04/16 10:57:00;;;;;;;1.08;0.90;;;15.80;71.00;;;;;;5067611;28;20067;-80
2022/04/16 10:59:39;;;;;;;1.35;1.00;;;15.90;71.30;;;;;;5071923;28;20488;-81
2022/04/16 11:02:35;;;;;;;1.92;1.60;;;16.20;70.10;;;;;;5052731;28;20052;-81
2022/04/16 11:05:10;;;;;;;3.35;1.00;;;16.30;69.80;;;;;;5060046;28;20045;-80
2022/04/16 11:07:37;;;;;;;3.40;1.05;;;16.20;71.90;;;;;;5069375;28;20567;-81
2022/04/16 11:10:04;;;;;;;3.22;1.52;;;16.50;73.40;;;;;;5069718;28;20122;-80
2022/04/16 11:12:30;;;;;;;2.15;1.30;;;15.80;72.90;;;;;;5052059;28;20048;-81
2022/04/16 11:14:55;;;;;;;2.13;1.20;;;15.60;74.30;;;;;;5069660;28;20177;-81
2022/04/16 11:17:21;;;;;;;3.55;1.55;;;15.10;74.50;;;;;;5035571;28;20048;-81
2022/04/16 11:20:05;;;;;;;2.22;1.10;;;14.90;75.50;;;;;;5067859;28;20044;-81
2022/04/16 11:22:31;;;;;;;1.05;0.90;;;14.60;75.60;;;;;;5068743;28;20098;-81
2022/04/16 11:24:58;;;;;;;2.05;1.17;;;14.80;72.40;;;;;;5037204;28;20037;-79
2022/04/16 11:36:00;;;;;;;;;;;14.50;74.80;;;;;;5068984;28;20044;-81
2022/04/16 11:38:32;;;;;;;2.15;1.05;;;14.40;74.10;;;;;;5059962;28;19978;-80
2022/04/16 11:41:04;;;;;;;2.08;1.58;;;14.50;75.90;;;;;;5057113;28;20137;-80
2022/04/16 11:43:30;;;;;;;2.22;1.10;;;14.50;72.70;;;;;;5057981;28;20044;-80
2022/04/16 11:45:56;;;;;;;1.85;1.30;;;14.60;75.00;;;;;;5053859;28;20412;-81
2022/04/16 11:48:22;;;;;;;2.25;1.10;;;14.70;77.40;;;;;;5073116;28;20539;-81
2022/04/16 11:50:48;;;;;;;1.40;1.17;;;14.90;76.10;;;;;;5072710;28;20047;-81
2022/04/16 11:53:14;;;;;;;2.63;1.40;;;14.50;74.60;;;;;;5054600;28;20044;-82
2022/04/16 11:55:50;;;;;;;1.48;1.38;;;14.20;74.60;;;;;;5071961;28;20488;-81
2022/04/16 11:58:16;;;;;;;1.17;1.10;;;14.40;74.80;;;;;;5056144;28;20048;-81
2022/04/16 12:00:54;;;;;;;4.00;1.25;;;14.60;74.70;;;;;;5054946;28;20044;-80
2022/04/16 12:03:20;;;;;;;3.33;1.83;;;14.60;74.40;;;;;;5039873;28;20131;-81
2022/04/16 12:05:48;;;;;;;3.33;1.20;;;14.90;72.10;;;;;;5055562;28;20123;-83
2022/04/16 12:08:16;;;;;;;1.85;1.02;;;14.70;72.50;;;;;;5072378;28;20067;-82
2022/04/16 12:10:44;;;;;;;1.27;1.08;;;14.80;73.60;;;;;;5054530;28;20114;-81
2022/04/16 12:13:11;;;;;;;1.85;1.27;;;15.00;73.10;;;;;;5080532;28;20397;-81
2022/04/16 12:15:41;;;;;;;3.60;0.98;;;14.90;70.00;;;;;;5055322;28;20076;-82
2022/04/16 12:18:22;;;;;;;2.75;1.00;;;15.10;69.80;;;;;;5055390;28;20048;-82
2022/04/16 12:20:48;;;;;;;1.52;1.00;;;14.90;69.10;;;;;;5057746;28;20064;-82
2022/04/16 12:23:21;;;;;;;1.90;1.00;;;14.80;70.50;;;;;;5068700;28;20265;-83
2022/04/16 12:25:47;;;;;;;3.38;1.30;;;14.70;71.30;;;;;;5052472;28;20141;-83
2022/04/16 12:28:14;;;;;;;2.20;1.00;;;14.90;70.90;;;;;;5036130;28;20452;-82
2022/04/16 12:30:40;;;;;;;2.03;1.25;;;15.00;72.10;;;;;;5036002;28;20055;-83
2022/04/16 12:33:11;;;;;;;2.22;1.08;;;15.00;72.00;;;;;;5052336;28;20045;-83
2022/04/16 12:35:45;;;;;;;1.13;1.02;;;15.10;71.30;;;;;;5036168;28;20059;-82
2022/04/16 12:38:15;;;;;;;2.58;1.08;;;15.00;70.90;;;;;;5052701;28;20052;-82
2022/04/16 12:40:41;;;;;;;2.33;1.00;;;15.10;73.40;;;;;;5052899;28;20057;-82
2022/04/16 12:43:06;;;;;;;2.28;1.13;;;15.10;74.60;;;;;;5052095;28;20090;-82
2022/04/16 12:45:32;;;;;;;1.60;1.20;;;15.30;71.80;;;;;;5052733;28;20048;-82
2022/04/16 12:47:57;;;;;;;1.20;1.10;;;15.30;72.10;;;;;;5057930;28;20476;-83
2022/04/16 12:50:24;;;;;;;1.20;1.10;;;15.10;72.00;;;;;;5071824;28;20552;-82
2022/04/16 12:52:50;;;;;;;1.77;1.00;;;14.70;72.80;;;;;;5039227;28;20104;-83
2022/04/16 12:55:17;;;;;;;1.08;0.80;;;15.00;73.30;;;;;;5089217;28;20052;-83
2022/04/16 12:57:45;;;;;;;1.52;1.05;;;14.90;71.20;;;;;;5039200;28;20074;-82
2022/04/16 13:00:12;;;;;;;1.80;1.10;;;14.80;73.40;;;;;;5078332;28;20045;-81
2022/04/16 13:02:42;;;;;;;3.47;1.30;;;14.80;72.10;;;;;;5044364;28;20044;-81